Time;durP1;ratioP1;P1;durP2;ratioP2;P2;SDS_P1;SDS_P2;PMS_P1;PMS_P2;Temp;Humidity;BMP_temperature;BMP_pressure;BME280_temperature;BME280_humidity;BME280_pressure;Samples;Min_cycle;Max_cycle;Signal;HPM_P1;HPM_P2
2022/03/20 00:00:33;;;;;;;26.92;16.25;;;4.80;98.00;;;;;;4915710;29;20072;-84
2022/03/20 05:43:46;;;;;;;24.93;15.07;;;4.10;99.50;;;;;;5959392;23;20828;-79
2022/03/20 05:46:15;;;;;;;26.63;16.27;;;3.90;99.90;;;;;;4953174;28;20711;-80
2022/03/20 05:48:42;;;;;;;26.75;16.77;;;3.70;99.90;;;;;;4955188;29;20051;-80
2022/03/20 05:51:09;;;;;;;26.23;16.20;;;3.70;99.90;;;;;;4956156;28;20134;-85
2022/03/20 05:53:36;;;;;;;24.48;16.23;;;3.60;99.90;;;;;;4947097;29;20559;-82
2022/03/20 05:58:49;;;;;;;;;;;3.60;99.90;;;;;;4954140;28;20069;-82
2022/03/20 06:01:16;;;;;;;23.83;14.25;;;3.90;99.90;;;;;;4952978;28;19976;-81
2022/03/20 06:03:43;;;;;;;24.55;14.82;;;4.00;99.90;;;;;;4953267;29;20047;-82
2022/03/20 06:06:10;;;;;;;21.48;13.10;;;4.10;99.90;;;;;;4950047;28;20051;-81
2022/03/20 06:08:38;;;;;;;19.52;13.15;;;4.20;99.90;;;;;;4948965;28;20146;-81
2022/03/20 06:11:05;;;;;;;22.63;14.32;;;4.00;99.90;;;;;;4953791;29;20055;-81
2022/03/20 06:13:38;;;;;;;23.50;15.35;;;4.00;99.90;;;;;;4953846;28;20059;-82
2022/03/20 06:16:08;;;;;;;23.27;15.13;;;4.00;99.90;;;;;;4953689;28;20058;-82
2022/03/20 06:18:36;;;;;;;26.17;17.15;;;4.00;99.90;;;;;;4952999;28;20052;-82
2022/03/20 06:21:05;;;;;;;27.25;18.52;;;3.70;99.90;;;;;;4953068;28;20130;-82
2022/03/20 06:23:33;;;;;;;25.40;16.50;;;3.40;99.90;;;;;;4952668;28;20047;-82
2022/03/20 06:26:00;;;;;;;27.35;16.70;;;3.40;99.90;;;;;;4951938;28;20106;-82
2022/03/20 06:28:27;;;;;;;26.52;16.48;;;3.70;99.90;;;;;;4952145;28;20130;-83
2022/03/20 06:30:54;;;;;;;23.30;14.90;;;3.90;99.90;;;;;;4953778;28;20090;-83
2022/03/20 06:33:25;;;;;;;21.98;14.38;;;4.10;99.90;;;;;;4952306;28;20469;-83
2022/03/20 06:35:53;;;;;;;25.63;16.25;;;4.10;99.90;;;;;;4953914;28;20047;-82
2022/03/20 06:38:20;;;;;;;24.42;15.75;;;4.00;99.90;;;;;;4953192;28;20051;-82
2022/03/20 06:40:47;;;;;;;25.75;16.10;;;4.10;99.90;;;;;;4953192;28;20138;-81
2022/03/20 06:43:14;;;;;;;24.75;15.73;;;4.10;99.90;;;;;;4953606;28;20047;-81
2022/03/20 06:45:42;;;;;;;27.48;17.92;;;4.10;99.90;;;;;;4952630;29;20094;-81
2022/03/20 06:48:09;;;;;;;26.55;17.27;;;3.90;99.90;;;;;;4953652;28;20051;-82
2022/03/20 06:50:38;;;;;;;28.38;18.33;;;3.90;99.90;;;;;;4952646;28;20477;-82
2022/03/20 06:53:05;;;;;;;26.40;17.25;;;3.40;99.90;;;;;;4954694;28;20142;-82
2022/03/20 06:55:33;;;;;;;28.85;17.40;;;3.60;99.90;;;;;;4955206;28;20134;-81
2022/03/20 06:58:00;;;;;;;25.00;15.75;;;3.60;99.90;;;;;;4953429;28;20181;-85
2022/03/20 07:00:29;;;;;;;25.55;15.75;;;3.90;99.90;;;;;;4964099;28;20138;-84
2022/03/20 07:02:56;;;;;;;24.42;16.20;;;4.10;99.90;;;;;;4957612;28;20077;-84
2022/03/20 07:05:24;;;;;;;24.38;15.85;;;4.10;99.90;;;;;;4956241;28;20047;-83
2022/03/20 07:07:52;;;;;;;26.27;15.98;;;4.00;99.90;;;;;;4956008;28;20142;-81
2022/03/20 07:10:22;;;;;;;24.30;16.33;;;4.20;99.90;;;;;;4957273;28;20090;-82
2022/03/20 07:12:50;;;;;;;24.63;15.68;;;4.30;99.90;;;;;;4953713;28;20103;-81
2022/03/20 07:15:18;;;;;;;23.20;14.30;;;4.40;99.90;;;;;;4955961;28;20115;-82
2022/03/20 07:17:48;;;;;;;25.80;17.13;;;4.70;99.90;;;;;;4956006;28;20039;-81
2022/03/20 07:20:16;;;;;;;26.55;16.35;;;4.60;99.60;;;;;;4967972;28;20106;-82
2022/03/20 07:22:47;;;;;;;26.23;17.33;;;4.70;99.90;;;;;;4956693;28;20047;-81
2022/03/20 07:30:43;;;;;;;25.33;16.55;;;5.00;99.90;;;;;;4956565;28;20519;-82
2022/03/20 07:33:11;;;;;;;25.90;16.42;;;5.00;99.60;;;;;;4955760;28;20099;-82
2022/03/20 07:35:39;;;;;;;23.70;15.88;;;5.10;98.80;;;;;;4956755;28;20051;-82
2022/03/20 07:38:06;;;;;;;23.55;15.85;;;5.10;98.50;;;;;;4954854;28;20135;-81
2022/03/20 07:40:34;;;;;;;23.70;15.35;;;5.20;98.30;;;;;;4958061;28;20208;-82
2022/03/20 07:43:01;;;;;;;24.95;16.45;;;5.30;97.60;;;;;;4956767;28;20126;-84
2022/03/20 07:45:30;;;;;;;26.42;16.98;;;5.40;97.10;;;;;;4955027;28;20149;-81
2022/03/20 07:47:58;;;;;;;25.63;15.95;;;5.40;97.10;;;;;;4956415;28;20062;-82
2022/03/20 07:50:25;;;;;;;23.98;15.40;;;5.60;97.10;;;;;;4952646;28;20504;-82
2022/03/20 07:52:52;;;;;;;24.63;15.48;;;5.70;96.60;;;;;;4946697;28;20138;-82
2022/03/20 07:55:20;;;;;;;28.33;17.33;;;5.80;95.20;;;;;;4948040;28;20047;-82
2022/03/20 07:57:48;;;;;;;26.50;16.42;;;5.90;94.40;;;;;;4949010;28;20449;-82
2022/03/20 08:00:17;;;;;;;27.08;15.85;;;6.00;94.50;;;;;;4944606;28;20150;-81
2022/03/20 08:02:45;;;;;;;25.58;16.50;;;6.00;94.00;;;;;;4949137;28;20400;-81
2022/03/20 08:05:12;;;;;;;23.85;15.35;;;6.10;94.00;;;;;;4950181;28;20051;-82
2022/03/20 08:07:40;;;;;;;28.17;18.17;;;6.20;94.10;;;;;;4947872;28;20138;-81
2022/03/20 08:10:08;;;;;;;25.95;15.93;;;6.20;94.20;;;;;;4954806;29;20055;-81
2022/03/20 08:12:37;;;;;;;29.15;18.90;;;6.40;93.60;;;;;;4954305;28;20087;-81
2022/03/20 08:15:09;;;;;;;30.48;18.45;;;6.30;93.40;;;;;;4965381;28;20424;-82
2022/03/20 08:17:46;;;;;;;30.05;19.27;;;6.30;93.30;;;;;;4965756;28;20055;-81
2022/03/20 08:20:14;;;;;;;30.63;18.83;;;6.40;93.50;;;;;;4958074;28;20636;-81
2022/03/20 08:22:42;;;;;;;29.73;18.83;;;6.50;93.60;;;;;;4958202;28;20054;-88
2022/03/20 08:25:11;;;;;;;27.42;17.63;;;6.60;93.10;;;;;;4956747;28;20079;-80
2022/03/20 08:27:49;;;;;;;25.15;16.67;;;6.70;92.60;;;;;;4955877;28;20082;-82
2022/03/20 08:30:20;;;;;;;27.33;17.25;;;6.80;92.40;;;;;;4949453;28;20051;-82
2022/03/20 08:32:49;;;;;;;26.13;17.92;;;6.80;92.50;;;;;;4932364;28;20139;-82
2022/03/20 08:35:19;;;;;;;28.27;18.45;;;7.00;92.30;;;;;;4943148;28;20047;-80
2022/03/20 08:37:48;;;;;;;32.38;19.63;;;7.10;91.70;;;;;;4943363;28;20055;-83
2022/03/20 08:40:21;;;;;;;30.52;19.55;;;7.10;91.70;;;;;;4951246;28;20139;-82
2022/03/20 08:42:52;;;;;;;27.45;18.52;;;7.20;91.50;;;;;;4957396;28;20419;-83
2022/03/20 08:45:24;;;;;;;25.38;17.13;;;7.30;89.60;;;;;;4952834;28;20065;-82
2022/03/20 08:47:52;;;;;;;28.00;17.40;;;7.30;90.00;;;;;;4949804;28;20052;-84
2022/03/20 08:50:19;;;;;;;26.20;16.52;;;7.40;89.20;;;;;;4932922;29;20409;-81
2022/03/20 08:52:48;;;;;;;25.55;16.08;;;7.50;85.70;;;;;;4937990;29;20048;-81
2022/03/20 08:55:18;;;;;;;23.50;14.77;;;7.60;84.30;;;;;;4947894;28;20078;-82
2022/03/20 08:57:47;;;;;;;27.88;18.17;;;7.70;84.70;;;;;;4953411;28;20055;-81
2022/03/20 09:00:18;;;;;;;29.60;19.42;;;7.90;86.80;;;;;;4952600;29;20051;-81
2022/03/20 09:02:49;;;;;;;26.80;17.45;;;7.90;86.40;;;;;;4962015;28;20109;-81
2022/03/20 09:05:20;;;;;;;22.20;14.68;;;8.00;86.20;;;;;;4954182;28;20059;-81
2022/03/20 09:07:49;;;;;;;23.95;15.73;;;8.10;86.00;;;;;;4947012;28;20479;-81
2022/03/20 09:10:17;;;;;;;23.13;14.80;;;8.20;86.00;;;;;;4951960;28;20055;-81
2022/03/20 09:12:46;;;;;;;26.58;17.70;;;8.30;85.00;;;;;;4952466;28;20472;-81
2022/03/20 09:15:18;;;;;;;25.17;16.92;;;8.40;85.20;;;;;;4954552;28;20047;-82
2022/03/20 09:20:33;;;;;;;27.08;16.35;;;8.60;83.50;;;;;;4952373;28;20095;-83
2022/03/20 09:23:03;;;;;;;26.08;17.33;;;8.70;83.10;;;;;;4952090;29;20536;-83
2022/03/20 09:25:32;;;;;;;28.42;18.25;;;8.90;81.30;;;;;;4950402;28;20138;-81
2022/03/20 09:28:00;;;;;;;30.40;19.48;;;8.90;80.90;;;;;;4944081;28;20039;-81
2022/03/20 09:30:27;;;;;;;25.67;16.92;;;9.00;79.00;;;;;;4944833;28;20043;-80
2022/03/20 09:32:56;;;;;;;25.00;15.82;;;9.10;77.90;;;;;;4945517;28;20408;-81
2022/03/20 09:35:23;;;;;;;23.92;15.85;;;9.20;77.70;;;;;;4952860;28;20497;-80
2022/03/20 09:37:50;;;;;;;28.55;17.77;;;9.20;77.40;;;;;;4948505;28;20062;-80
2022/03/20 09:40:21;;;;;;;26.48;17.30;;;9.20;76.90;;;;;;4949286;28;20047;-81
2022/03/20 09:42:49;;;;;;;25.63;17.65;;;9.30;76.70;;;;;;4950483;28;20063;-81
2022/03/20 09:45:19;;;;;;;24.10;15.98;;;9.50;75.90;;;;;;4949137;28;20126;-81
2022/03/20 09:47:47;;;;;;;29.88;19.60;;;9.60;74.40;;;;;;4949844;28;20170;-81
2022/03/20 09:50:16;;;;;;;24.70;16.27;;;9.60;75.10;;;;;;4946795;28;20102;-80
2022/03/20 09:52:44;;;;;;;27.05;17.88;;;9.80;75.50;;;;;;4946572;28;20051;-80
2022/03/20 09:55:12;;;;;;;23.67;15.65;;;9.90;75.20;;;;;;4948225;28;20146;-81
2022/03/20 09:57:39;;;;;;;26.85;18.00;;;10.00;74.10;;;;;;4954792;28;20103;-82
2022/03/20 10:00:11;;;;;;;24.77;17.25;;;10.10;73.90;;;;;;4949727;28;20401;-82
2022/03/20 10:02:39;;;;;;;23.55;15.75;;;10.20;72.90;;;;;;4951190;28;20083;-81
2022/03/20 10:05:09;;;;;;;24.48;15.52;;;10.20;71.40;;;;;;4949924;28;20051;-82
2022/03/20 10:07:40;;;;;;;23.45;16.15;;;10.40;72.00;;;;;;4950782;28;20047;-82
2022/03/20 10:10:13;;;;;;;25.50;16.05;;;10.50;69.60;;;;;;4951191;28;20058;-81
2022/03/20 10:12:44;;;;;;;21.48;13.85;;;10.50;69.10;;;;;;4951504;28;20061;-84
2022/03/20 10:15:27;;;;;;;26.08;16.45;;;10.70;67.60;;;;;;4951507;28;20568;-84
2022/03/20 10:18:11;;;;;;;25.73;15.60;;;11.10;62.50;;;;;;4950381;29;20051;-81
2022/03/20 10:20:44;;;;;;;23.65;15.68;;;11.60;58.80;;;;;;4949968;28;20051;-80
2022/03/20 10:23:36;;;;;;;24.00;14.57;;;11.60;57.70;;;;;;4949565;28;20086;-81
2022/03/20 10:26:06;;;;;;;23.52;14.68;;;11.70;56.90;;;;;;4948898;28;20063;-89
2022/03/20 10:28:38;;;;;;;20.88;14.20;;;12.00;55.00;;;;;;4952491;28;20517;-85
2022/03/20 10:31:09;;;;;;;21.92;14.00;;;12.00;54.70;;;;;;4951823;28;20549;-85
2022/03/20 10:33:40;;;;;;;23.52;14.88;;;12.30;54.80;;;;;;4956161;28;20452;-86
2022/03/20 10:36:13;;;;;;;22.02;14.93;;;12.20;53.70;;;;;;4955217;28;20059;-84
2022/03/20 10:38:43;;;;;;;24.95;15.48;;;12.20;54.40;;;;;;4946023;28;20436;-85
2022/03/20 10:41:24;;;;;;;22.25;14.98;;;12.40;54.00;;;;;;4946049;28;20061;-85
2022/03/20 10:43:52;;;;;;;18.65;12.90;;;12.50;53.20;;;;;;4948680;29;20058;-87
2022/03/20 10:46:23;;;;;;;20.65;13.48;;;12.60;52.50;;;;;;4949973;29;20129;-88
2022/03/20 10:48:53;;;;;;;20.48;13.65;;;12.70;53.10;;;;;;4939676;29;20051;-89
2022/03/20 10:51:37;;;;;;;20.48;13.38;;;12.70;52.50;;;;;;4955914;29;20055;-88
2022/03/20 10:54:10;;;;;;;18.17;12.23;;;12.50;52.40;;;;;;4954533;28;20178;-89
2022/03/20 10:56:39;;;;;;;19.05;12.73;;;12.50;53.70;;;;;;4955041;29;20493;-88
2022/03/20 10:59:14;;;;;;;18.92;12.30;;;12.70;54.20;;;;;;4953384;28;20079;-87
2022/03/20 11:01:43;;;;;;;18.92;12.82;;;12.70;52.50;;;;;;4956273;29;20504;-87
2022/03/20 11:04:12;;;;;;;19.88;13.18;;;12.70;52.80;;;;;;4954927;28;20051;-89
2022/03/20 11:06:46;;;;;;;17.20;11.82;;;12.80;53.80;;;;;;4952895;29;20553;-88
2022/03/20 11:09:15;;;;;;;21.35;12.73;;;12.80;53.20;;;;;;4955326;28;20050;-85
2022/03/20 11:11:48;;;;;;;20.58;13.95;;;13.00;53.20;;;;;;4954390;28;20472;-83
2022/03/20 11:14:18;;;;;;;20.90;14.05;;;13.10;52.80;;;;;;4952678;28;20404;-83
2022/03/20 11:16:49;;;;;;;22.33;13.75;;;13.00;53.20;;;;;;4953693;28;20050;-83
2022/03/20 11:19:19;;;;;;;20.90;13.65;;;13.10;54.40;;;;;;4953974;28;20501;-83
2022/03/20 11:21:48;;;;;;;24.58;13.82;;;13.20;53.00;;;;;;4947925;28;20083;-88
2022/03/20 11:24:18;;;;;;;18.40;12.52;;;13.10;51.70;;;;;;4962844;28;20086;-86
2022/03/20 11:26:51;;;;;;;19.30;12.88;;;13.10;51.60;;;;;;4956775;28;20047;-87
2022/03/20 11:29:21;;;;;;;18.50;13.07;;;13.10;52.10;;;;;;4958194;28;20051;-91
2022/03/20 11:31:49;;;;;;;18.60;12.45;;;13.40;52.50;;;;;;4959211;28;20058;-88
2022/03/20 11:34:18;;;;;;;18.13;11.10;;;13.20;51.70;;;;;;4958018;28;20078;-93
2022/03/20 11:37:07;;;;;;;15.68;10.20;;;13.20;52.10;;;;;;4955301;28;20456;-93
2022/03/20 11:39:37;;;;;;;17.58;11.27;;;13.50;51.10;;;;;;4955360;28;20182;-92
2022/03/20 11:42:25;;;;;;;21.77;14.73;;;13.60;50.70;;;;;;4961592;28;20082;-93
2022/03/20 11:44:55;;;;;;;18.58;11.88;;;13.80;48.80;;;;;;4959073;28;20488;-94
2022/03/20 11:47:27;;;;;;;16.48;11.13;;;13.60;48.60;;;;;;4960869;28;20595;-89
2022/03/20 11:50:21;;;;;;;16.92;11.48;;;13.70;48.40;;;;;;4922843;29;20051;-87
2022/03/20 11:52:55;;;;;;;18.67;11.70;;;13.70;47.60;;;;;;4965671;28;20086;-87
2022/03/20 11:55:31;;;;;;;14.88;9.85;;;13.70;47.30;;;;;;4974011;28;20054;-87
2022/03/20 11:57:59;;;;;;;18.90;11.43;;;13.80;47.00;;;;;;4963521;28;20095;-87
2022/03/20 12:00:28;;;;;;;20.08;12.90;;;13.90;47.40;;;;;;4968129;28;20584;-82
2022/03/20 12:03:34;;;;;;;18.48;10.90;;;14.10;47.40;;;;;;4963405;28;20138;-82
2022/03/20 12:06:50;;;;;;;16.17;9.90;;;14.20;47.60;;;;;;4967790;28;20055;-82
2022/03/20 12:09:51;;;;;;;17.23;11.40;;;14.30;46.80;;;;;;4951418;28;20055;-82
2022/03/20 12:12:44;;;;;;;16.20;10.98;;;14.40;47.00;;;;;;4957016;28;20082;-82
2022/03/20 12:15:12;;;;;;;15.77;10.48;;;14.50;46.00;;;;;;4963641;28;20047;-82
2022/03/20 12:18:00;;;;;;;17.30;10.30;;;14.60;46.20;;;;;;4957839;28;20051;-82
2022/03/20 12:21:03;;;;;;;15.98;9.55;;;14.90;46.10;;;;;;4947980;28;20078;-82
2022/03/20 12:23:44;;;;;;;17.55;10.68;;;15.10;46.00;;;;;;4947796;28;20051;-80
2022/03/20 12:26:34;;;;;;;16.27;11.20;;;15.30;45.70;;;;;;4956836;28;20140;-79
2022/03/20 12:29:32;;;;;;;16.38;10.00;;;15.40;44.80;;;;;;4951249;28;20047;-79
2022/03/20 12:32:02;;;;;;;15.32;10.90;;;15.40;45.40;;;;;;4948665;28;20417;-79
2022/03/20 12:34:30;;;;;;;17.77;11.65;;;15.50;44.80;;;;;;4954014;28;20050;-79
2022/03/20 12:37:39;;;;;;;16.65;11.05;;;15.60;44.70;;;;;;4959918;28;20058;-79
2022/03/20 12:40:13;;;;;;;19.23;12.13;;;15.90;44.10;;;;;;4954578;28;20078;-78
2022/03/20 12:42:42;;;;;;;16.67;10.68;;;16.00;43.70;;;;;;4952262;28;20181;-79
2022/03/20 12:45:16;;;;;;;15.63;9.85;;;16.20;43.90;;;;;;4962053;28;20059;-78
2022/03/20 12:47:56;;;;;;;17.88;11.30;;;16.40;43.80;;;;;;4956462;28;20054;-78
2022/03/20 12:50:27;;;;;;;16.83;11.05;;;16.60;43.50;;;;;;4950636;28;20404;-78
2022/03/20 12:53:05;;;;;;;14.25;10.65;;;16.70;43.90;;;;;;4960532;28;20141;-78
2022/03/20 12:55:32;;;;;;;18.88;12.75;;;16.90;43.80;;;;;;4951970;28;20050;-78
2022/03/20 12:57:59;;;;;;;16.73;11.55;;;17.10;44.10;;;;;;4953816;28;20059;-81
2022/03/20 13:00:32;;;;;;;17.30;12.20;;;17.10;43.60;;;;;;4960000;28;20071;-79
2022/03/20 13:03:07;;;;;;;19.45;13.25;;;17.20;43.80;;;;;;4951626;28;20051;-81
2022/03/20 13:05:35;;;;;;;;;;;17.20;43.40;;;;;;4964749;28;20051;-81
2022/03/20 13:08:02;;;;;;;17.63;13.25;;;17.50;44.40;;;;;;4959430;28;19926;-81
2022/03/20 13:10:36;;;;;;;22.63;14.98;;;17.40;43.30;;;;;;4962103;28;20481;-81
2022/03/20 13:13:05;;;;;;;19.10;13.73;;;17.30;43.60;;;;;;4957270;28;20506;-81
2022/03/20 13:15:36;;;;;;;20.67;14.02;;;17.90;43.40;;;;;;4967916;28;20138;-81
2022/03/20 13:18:05;;;;;;;20.83;15.27;;;17.80;43.40;;;;;;4970972;28;20142;-80
2022/03/20 13:20:34;;;;;;;21.98;14.50;;;17.80;42.70;;;;;;4963315;28;20066;-81
2022/03/20 13:23:08;;;;;;;19.48;13.45;;;18.20;42.20;;;;;;4951246;28;20051;-81
2022/03/20 13:25:40;;;;;;;18.57;13.70;;;18.40;42.20;;;;;;4952315;28;20083;-81
2022/03/20 13:28:08;;;;;;;19.80;13.43;;;18.30;41.10;;;;;;4962691;28;20323;-81
2022/03/20 13:30:39;;;;;;;18.45;13.70;;;18.40;41.40;;;;;;4958412;28;20130;-81
2022/03/20 13:33:07;;;;;;;19.42;13.30;;;18.50;40.60;;;;;;4956280;28;20057;-81
2022/03/20 13:35:34;;;;;;;19.42;13.68;;;18.40;40.40;;;;;;4958166;28;20153;-81
2022/03/20 13:38:04;;;;;;;20.67;14.73;;;18.70;40.70;;;;;;4956723;28;20578;-81
2022/03/20 13:40:34;;;;;;;20.00;14.98;;;19.50;40.40;;;;;;4952297;28;20061;-81
2022/03/20 13:43:01;;;;;;;20.90;14.15;;;19.30;39.80;;;;;;4959646;28;20047;-80
2022/03/20 13:45:38;;;;;;;20.65;14.45;;;19.80;41.60;;;;;;4957945;28;20054;-81
2022/03/20 13:48:07;;;;;;;21.85;15.02;;;20.40;40.00;;;;;;4952381;28;20055;-82
2022/03/20 13:50:34;;;;;;;19.98;14.48;;;19.70;39.80;;;;;;4955146;28;20142;-80
2022/03/20 13:53:01;;;;;;;22.45;16.73;;;19.40;41.40;;;;;;4945883;28;20599;-81
2022/03/20 13:55:38;;;;;;;21.65;17.52;;;19.50;39.90;;;;;;4960256;28;20476;-80
2022/03/20 13:58:06;;;;;;;21.40;16.00;;;19.70;40.30;;;;;;4968800;28;20055;-81
2022/03/20 14:00:37;;;;;;;19.05;14.88;;;20.70;40.10;;;;;;4952729;28;20051;-80
2022/03/20 14:03:07;;;;;;;19.00;14.25;;;21.20;39.30;;;;;;4954893;28;20051;-81
2022/03/20 14:05:35;;;;;;;21.00;14.68;;;20.80;39.30;;;;;;4952177;28;20070;-82
2022/03/20 14:08:13;;;;;;;20.60;15.73;;;20.80;38.40;;;;;;4952817;28;20143;-81
2022/03/20 14:10:50;;;;;;;19.77;14.85;;;21.40;38.80;;;;;;4951661;29;20055;-81
2022/03/20 14:13:21;;;;;;;21.08;15.48;;;20.40;38.80;;;;;;4951006;29;20058;-81
2022/03/20 14:16:04;;;;;;;19.73;14.48;;;22.00;37.40;;;;;;4951546;28;20098;-80
2022/03/20 14:18:32;;;;;;;20.17;15.03;;;23.10;36.70;;;;;;4950110;28;20094;-81
2022/03/20 14:21:11;;;;;;;17.48;14.38;;;23.20;36.60;;;;;;4951538;29;20365;-81
2022/03/20 14:23:55;;;;;;;17.52;14.05;;;22.50;36.30;;;;;;4950788;28;20057;-81
2022/03/20 14:26:22;;;;;;;18.30;13.90;;;22.90;36.10;;;;;;4950807;28;20058;-81
2022/03/20 14:29:10;;;;;;;20.17;14.70;;;23.30;35.70;;;;;;4951525;28;20142;-81
2022/03/20 14:40:12;;;;;;;19.02;15.27;;;24.00;34.60;;;;;;4951745;28;20083;-81
2022/03/20 14:42:44;;;;;;;17.58;14.13;;;22.50;34.80;;;;;;4957974;28;21030;-82
2022/03/20 14:45:13;;;;;;;18.60;14.37;;;22.80;35.30;;;;;;4951437;29;20052;-82
2022/03/20 14:47:41;;;;;;;16.23;13.63;;;23.10;35.70;;;;;;4949836;28;20058;-82
2022/03/20 14:50:09;;;;;;;16.70;13.52;;;23.40;35.00;;;;;;4949777;29;20047;-83
2022/03/20 14:52:36;;;;;;;15.90;13.25;;;23.60;33.90;;;;;;4951664;28;20139;-82
2022/03/20 14:55:06;;;;;;;16.55;14.43;;;24.40;34.10;;;;;;4948581;28;20051;-83
2022/03/20 14:57:33;;;;;;;16.48;13.73;;;24.20;34.00;;;;;;4942219;28;20477;-83
2022/03/20 15:00:01;;;;;;;15.02;12.98;;;23.60;34.10;;;;;;4956533;28;20130;-82
2022/03/20 15:02:28;;;;;;;15.23;13.45;;;23.50;34.70;;;;;;4947965;29;20087;-83
2022/03/20 15:04:57;;;;;;;14.35;12.80;;;23.80;34.10;;;;;;4963400;28;20134;-83
2022/03/20 15:07:24;;;;;;;14.88;12.88;;;24.20;34.60;;;;;;4956036;28;20053;-83
2022/03/20 15:12:37;;;;;;;15.35;12.75;;;24.80;33.60;;;;;;4951809;29;20430;-84
2022/03/20 15:15:04;;;;;;;17.48;14.73;;;25.90;32.80;;;;;;4964798;28;20132;-83
2022/03/20 15:17:34;;;;;;;17.33;14.90;;;25.20;32.10;;;;;;4955400;29;20134;-83
2022/03/20 15:20:03;;;;;;;17.63;15.02;;;24.50;32.80;;;;;;4955673;29;20055;-83
2022/03/20 15:22:32;;;;;;;16.60;13.75;;;24.90;32.20;;;;;;4955119;29;20124;-82
2022/03/20 15:24:59;;;;;;;13.40;12.00;;;24.20;32.70;;;;;;4945726;28;20134;-89
2022/03/20 15:27:26;;;;;;;14.15;12.18;;;24.50;33.20;;;;;;4961894;28;20054;-85
2022/03/20 15:29:53;;;;;;;14.98;12.40;;;25.30;31.30;;;;;;4950886;28;20051;-93
2022/03/20 15:32:20;;;;;;;17.85;14.68;;;25.40;31.60;;;;;;4950484;28;20075;-93
2022/03/20 15:34:48;;;;;;;15.55;13.00;;;25.00;31.20;;;;;;4965180;28;20130;-94
2022/03/20 15:37:16;;;;;;;13.98;11.50;;;24.90;30.80;;;;;;4957523;28;20480;-84
2022/03/20 15:39:45;;;;;;;14.98;11.18;;;25.30;31.50;;;;;;4952714;28;20178;-84
2022/03/20 15:42:12;;;;;;;13.55;11.10;;;25.80;30.50;;;;;;4951665;28;20127;-84
2022/03/20 15:44:39;;;;;;;12.75;10.55;;;24.70;30.30;;;;;;4956543;28;20102;-81
2022/03/20 15:47:07;;;;;;;12.25;10.32;;;24.90;32.50;;;;;;4956463;28;20493;-84
2022/03/20 15:49:34;;;;;;;13.70;10.88;;;24.60;31.60;;;;;;4955847;28;20143;-82
2022/03/20 15:52:02;;;;;;;13.10;10.75;;;25.40;30.60;;;;;;4956607;28;20055;-83
2022/03/20 15:54:30;;;;;;;12.68;10.35;;;24.20;32.10;;;;;;4955663;29;20083;-78
2022/03/20 15:56:57;;;;;;;12.38;10.73;;;24.90;32.50;;;;;;4956481;29;20564;-80
2022/03/20 15:59:24;;;;;;;13.02;10.88;;;25.10;31.30;;;;;;4955281;28;20553;-85
2022/03/20 16:01:52;;;;;;;13.90;11.07;;;25.40;31.10;;;;;;4962467;28;20506;-83
2022/03/20 16:04:19;;;;;;;13.98;10.52;;;24.40;31.10;;;;;;4960531;28;20082;-83
2022/03/20 16:06:46;;;;;;;15.68;11.57;;;24.60;31.40;;;;;;4957036;28;20126;-79
2022/03/20 16:09:14;;;;;;;14.60;11.20;;;23.90;31.70;;;;;;4945036;28;20086;-79
2022/03/20 16:11:42;;;;;;;14.75;11.07;;;23.90;31.40;;;;;;4952394;29;20082;-79
2022/03/20 16:14:09;;;;;;;15.77;10.63;;;23.80;31.20;;;;;;4950951;29;20131;-80
2022/03/20 16:16:36;;;;;;;15.82;11.18;;;24.10;30.90;;;;;;4951219;29;20367;-80
2022/03/20 16:19:04;;;;;;;16.27;11.38;;;23.70;31.50;;;;;;4953316;29;20146;-81
2022/03/20 16:21:31;;;;;;;14.25;11.20;;;23.40;31.40;;;;;;4950118;29;20146;-81
2022/03/20 16:29:28;;;;;;;15.02;10.70;;;22.00;32.80;;;;;;4970503;28;20511;-79
2022/03/20 16:32:00;;;;;;;15.43;10.52;;;22.50;33.00;;;;;;4970798;28;20054;-80
2022/03/20 16:34:28;;;;;;;15.50;10.60;;;22.50;33.60;;;;;;4953818;28;20133;-79
2022/03/20 16:36:56;;;;;;;16.27;11.50;;;22.00;32.90;;;;;;4953183;28;20166;-79
2022/03/20 16:39:25;;;;;;;16.45;10.90;;;21.90;33.60;;;;;;4952657;28;20496;-79
2022/03/20 16:41:55;;;;;;;15.57;10.68;;;22.20;34.00;;;;;;4960021;28;20075;-81
2022/03/20 16:44:22;;;;;;;17.13;11.40;;;22.00;32.70;;;;;;4951401;29;20102;-81
2022/03/20 16:46:50;;;;;;;12.85;10.20;;;21.60;33.80;;;;;;4952418;28;20442;-81
2022/03/20 16:49:17;;;;;;;13.70;10.15;;;21.30;33.70;;;;;;4953630;28;20603;-82
2022/03/20 16:51:45;;;;;;;15.15;10.88;;;20.90;34.70;;;;;;4952657;29;20047;-85
2022/03/20 16:54:13;;;;;;;15.73;11.68;;;20.80;34.80;;;;;;4950823;28;20047;-90
2022/03/20 16:56:40;;;;;;;16.90;12.32;;;20.50;34.80;;;;;;4952519;28;20130;-90
2022/03/20 16:59:09;;;;;;;17.67;12.30;;;20.00;35.30;;;;;;4952376;29;20420;-89
2022/03/20 17:01:36;;;;;;;17.70;12.48;;;19.40;36.30;;;;;;4956754;28;20134;-87
2022/03/20 17:04:04;;;;;;;17.75;12.80;;;19.00;36.70;;;;;;4946252;28;20051;-90
2022/03/20 17:06:32;;;;;;;19.35;13.00;;;18.50;38.20;;;;;;4952258;28;20074;-89
2022/03/20 17:09:00;;;;;;;15.52;12.00;;;18.20;37.90;;;;;;4952301;28;20050;-90
2022/03/20 17:11:28;;;;;;;17.42;12.15;;;18.30;37.80;;;;;;4952880;28;20055;-91
2022/03/20 17:13:55;;;;;;;18.23;12.32;;;18.10;38.30;;;;;;4950429;29;20052;-90
2022/03/20 17:16:24;;;;;;;16.98;12.38;;;17.30;39.60;;;;;;4959502;28;20074;-84
2022/03/20 17:18:54;;;;;;;19.35;12.82;;;17.40;39.70;;;;;;4960615;28;20114;-90
2022/03/20 17:21:22;;;;;;;18.63;13.00;;;17.20;39.40;;;;;;4949853;29;20094;-86
2022/03/20 17:23:49;;;;;;;17.33;11.82;;;17.10;39.80;;;;;;4953379;28;20154;-85
2022/03/20 17:26:16;;;;;;;16.65;11.07;;;17.00;40.10;;;;;;4963713;28;20191;-83
2022/03/20 17:28:43;;;;;;;15.95;10.77;;;16.90;41.10;;;;;;4955889;28;20061;-84
2022/03/20 17:31:11;;;;;;;18.02;12.15;;;16.80;44.00;;;;;;4952137;29;20569;-86
2022/03/20 17:33:39;;;;;;;19.80;13.30;;;16.70;41.20;;;;;;4950263;28;20674;-86
2022/03/20 17:36:07;;;;;;;17.35;11.95;;;16.20;41.50;;;;;;4951755;29;20055;-86
2022/03/20 17:38:34;;;;;;;18.13;12.55;;;16.00;41.70;;;;;;4951295;28;20133;-86
2022/03/20 17:41:01;;;;;;;19.70;12.60;;;15.90;41.90;;;;;;4952183;29;20059;-86
2022/03/20 17:43:28;;;;;;;16.80;12.38;;;15.80;42.10;;;;;;4951036;29;20059;-85
2022/03/20 17:45:56;;;;;;;17.98;12.13;;;15.70;42.30;;;;;;4951339;28;20125;-85
2022/03/20 17:48:29;;;;;;;19.52;12.63;;;15.50;42.80;;;;;;4953707;28;20496;-85
2022/03/20 17:50:58;;;;;;;18.15;12.70;;;15.40;43.00;;;;;;4951876;29;20051;-85
2022/03/20 17:53:26;;;;;;;19.75;13.05;;;15.30;43.00;;;;;;4952173;29;20047;-85
2022/03/20 17:55:53;;;;;;;19.20;13.07;;;15.10;43.30;;;;;;4957233;28;20511;-84
2022/03/20 17:58:22;;;;;;;21.35;13.50;;;15.10;43.60;;;;;;4968883;28;20046;-88
2022/03/20 18:00:50;;;;;;;21.48;13.57;;;15.00;44.40;;;;;;4957904;28;20165;-86
2022/03/20 18:08:48;;;;;;;19.88;12.98;;;14.70;44.60;;;;;;4950336;28;20448;-84
2022/03/20 18:11:16;;;;;;;19.30;13.30;;;14.50;44.90;;;;;;4961576;28;20059;-89
2022/03/20 18:13:47;;;;;;;17.95;12.95;;;14.50;44.60;;;;;;4967957;28;20043;-89
2022/03/20 18:16:14;;;;;;;17.80;12.73;;;14.50;45.40;;;;;;4963761;28;20058;-90
2022/03/20 18:18:41;;;;;;;19.00;12.80;;;14.50;44.70;;;;;;4953139;28;20074;-84
2022/03/20 18:21:10;;;;;;;19.05;12.60;;;14.40;44.80;;;;;;4948550;28;20334;-84
2022/03/20 18:23:37;;;;;;;18.23;11.98;;;14.30;44.70;;;;;;4952000;29;20077;-83
2022/03/20 18:26:04;;;;;;;19.17;12.70;;;14.20;44.90;;;;;;4951640;28;20138;-82
2022/03/20 18:28:32;;;;;;;17.90;11.77;;;14.10;44.60;;;;;;4952094;28;20150;-81
2022/03/20 18:30:59;;;;;;;16.50;12.07;;;14.20;44.90;;;;;;4958558;28;20442;-79
2022/03/20 18:33:27;;;;;;;16.27;11.55;;;14.10;44.80;;;;;;4945982;28;20045;-79
2022/03/20 18:35:55;;;;;;;19.70;12.60;;;14.00;45.10;;;;;;4954013;28;20074;-86
2022/03/20 18:38:26;;;;;;;18.33;12.10;;;13.90;44.80;;;;;;4950182;29;20098;-86
2022/03/20 18:40:54;;;;;;;16.00;11.23;;;13.80;45.00;;;;;;4949937;28;20417;-86
2022/03/20 18:43:22;;;;;;;17.77;11.50;;;13.80;45.00;;;;;;4949774;28;20134;-86
2022/03/20 18:45:49;;;;;;;17.38;11.38;;;13.70;45.00;;;;;;4951113;29;20454;-85
2022/03/20 18:48:16;;;;;;;15.15;10.70;;;13.70;45.00;;;;;;4947844;28;20055;-88
2022/03/20 18:50:43;;;;;;;15.75;10.90;;;13.60;45.40;;;;;;4953694;28;20109;-86
2022/03/20 18:53:10;;;;;;;15.13;10.10;;;13.50;45.40;;;;;;4955901;29;20102;-86
2022/03/20 18:55:39;;;;;;;17.42;11.60;;;13.60;45.00;;;;;;4953741;28;20063;-88
2022/03/20 18:58:07;;;;;;;15.75;10.82;;;13.50;45.60;;;;;;4953895;29;20131;-88
2022/03/20 19:00:35;;;;;;;16.60;10.57;;;13.40;45.60;;;;;;4954430;29;20179;-86